createdAt,value
2023-01-17T00:00:03.039Z,2.76
2023-01-17T00:05:02.830Z,2.81
2023-01-17T00:10:02.953Z,2.81
2023-01-17T00:15:03.249Z,2.73
2023-01-17T00:20:02.624Z,2.76
2023-01-17T00:25:02.437Z,2.68
2023-01-17T00:30:03.150Z,2.39
2023-01-17T00:35:02.978Z,2.33
2023-01-17T00:40:02.740Z,2.3
2023-01-17T00:45:02.430Z,2.36
2023-01-17T00:50:03.148Z,2.38
2023-01-17T00:55:02.722Z,2.49
2023-01-17T01:00:03.025Z,2.71
2023-01-17T01:05:02.684Z,2.86
2023-01-17T01:10:02.528Z,2.87
2023-01-17T01:15:02.250Z,2.87
2023-01-17T01:20:03.011Z,2.85
2023-01-17T01:25:03.086Z,3.14
2023-01-17T01:30:02.287Z,3.24
2023-01-17T01:35:03.023Z,3.63
2023-01-17T01:40:02.686Z,3.93
2023-01-17T01:45:02.569Z,3.89
2023-01-17T01:50:03.103Z,4.09
2023-01-17T01:55:03.242Z,4.08
2023-01-17T02:00:02.715Z,4.03
2023-01-17T02:05:04.578Z,4.19
2023-01-17T02:10:02.383Z,4.05
2023-01-17T02:15:02.925Z,3.96
2023-01-17T02:20:02.566Z,4.03
2023-01-17T02:25:02.281Z,4.07
2023-01-17T02:30:03.140Z,4.09
2023-01-17T02:35:02.822Z,4.14
2023-01-17T02:40:02.682Z,4.14
2023-01-17T02:45:02.887Z,4.11
2023-01-17T02:50:02.506Z,4.34
2023-01-17T02:55:03.217Z,4.29
2023-01-17T03:00:02.253Z,4.31
2023-01-17T03:05:02.953Z,4.27
2023-01-17T03:10:02.793Z,4.33
2023-01-17T03:15:02.566Z,4.31
2023-01-17T03:20:02.411Z,4.24
2023-01-17T03:25:02.222Z,4.26
2023-01-17T03:30:03.116Z,4.08
2023-01-17T03:35:02.602Z,4.15
2023-01-17T03:40:02.493Z,4
2023-01-17T03:45:02.339Z,3.96
2023-01-17T03:50:02.369Z,3.8
2023-01-17T03:55:03.654Z,3.51
2023-01-17T04:00:03.253Z,3.32
2023-01-17T04:05:02.441Z,3.05
2023-01-17T04:10:02.968Z,2.98
2023-01-17T04:15:02.845Z,3.03
2023-01-17T04:20:02.635Z,2.93
2023-01-17T04:25:02.386Z,3.08
2023-01-17T04:30:02.257Z,3.01
2023-01-17T04:35:02.883Z,3.06
2023-01-17T04:40:02.870Z,3.06
2023-01-17T04:45:02.710Z,3.24
2023-01-17T04:50:02.350Z,3.18
2023-01-17T04:55:03.859Z,3.2
2023-01-17T05:00:02.926Z,3.24
2023-01-17T05:05:02.881Z,3.25
2023-01-17T05:10:02.812Z,3.24
2023-01-17T05:15:02.791Z,3.32
2023-01-17T05:20:02.980Z,3.32
2023-01-17T05:25:02.811Z,3.39
2023-01-17T05:30:02.528Z,3.49
2023-01-17T05:35:02.377Z,3.2
2023-01-17T05:40:02.495Z,3.36
2023-01-17T05:45:02.465Z,3.41
2023-01-17T05:50:02.541Z,3.4
2023-01-17T05:55:02.909Z,3.35
2023-01-17T06:00:03.186Z,3.54
2023-01-17T06:05:03.570Z,3.53
2023-01-17T06:10:03.057Z,3.51
2023-01-17T06:15:02.861Z,3.48
2023-01-17T06:20:02.822Z,3.49
2023-01-17T06:25:02.664Z,3.32
2023-01-17T06:30:02.534Z,3.36
2023-01-17T06:35:02.239Z,3.45
2023-01-17T06:40:02.919Z,3.48
2023-01-17T06:45:03.003Z,3.42
2023-01-17T06:50:02.755Z,3.63
2023-01-17T06:55:03.200Z,3.61
2023-01-17T07:00:02.407Z,3.61
2023-01-17T07:05:02.294Z,3.57
2023-01-17T07:10:03.017Z,3.59
2023-01-17T07:15:02.845Z,3.54
2023-01-17T07:20:02.759Z,3.53
2023-01-17T07:25:02.767Z,3.39
2023-01-17T07:30:02.470Z,3.39
2023-01-17T07:35:02.215Z,3.52
2023-01-17T07:40:03.004Z,3.53
2023-01-17T07:45:02.304Z,3.42
2023-01-17T07:50:03.045Z,3.31
2023-01-17T07:55:03.758Z,3.42
2023-01-17T08:00:02.635Z,3.4
2023-01-17T08:05:02.331Z,3.43
2023-01-17T08:10:02.316Z,3.44
2023-01-17T08:15:03.019Z,3.31
2023-01-17T08:20:02.832Z,3.13
2023-01-17T08:25:02.687Z,3.17
2023-01-17T08:30:02.571Z,3.33
2023-01-17T08:35:02.674Z,3.36
2023-01-17T08:40:02.768Z,3.65
2023-01-17T08:45:02.322Z,3.63
2023-01-17T08:50:02.977Z,4.1
2023-01-17T08:55:03.113Z,3.68
2023-01-17T09:00:02.498Z,3.57
2023-01-17T09:05:02.288Z,4.16
2023-01-17T09:10:03.056Z,3.83
2023-01-17T09:15:02.823Z,3.65
2023-01-17T09:20:02.504Z,3.35
2023-01-17T09:25:02.252Z,3.21
2023-01-17T09:30:02.254Z,3.06
2023-01-17T09:35:02.409Z,2.88
2023-01-17T09:40:02.248Z,2.81
2023-01-17T09:45:03.136Z,2.78
2023-01-17T09:50:02.831Z,2.49
2023-01-17T09:55:03.499Z,2.83
2023-01-17T10:00:03.692Z,3.11
2023-01-17T10:05:03.021Z,3.05
2023-01-17T10:10:02.682Z,2.99
2023-01-17T10:15:02.549Z,2.99
2023-01-17T10:20:02.222Z,3.17
2023-01-17T10:25:02.897Z,2.93
2023-01-17T10:30:02.680Z,3.03
2023-01-17T10:35:02.382Z,3.5
2023-01-17T10:40:03.096Z,3.86
2023-01-17T10:45:02.992Z,4.41
2023-01-17T10:50:02.665Z,4.53
2023-01-17T10:55:03.103Z,5.21
2023-01-17T11:00:02.352Z,4.97
2023-01-17T11:05:02.446Z,4.4
2023-01-17T11:10:03.140Z,4.48
2023-01-17T11:15:03.131Z,4.53
2023-01-17T11:20:02.967Z,4.29
2023-01-17T11:25:02.788Z,4.78
2023-01-17T11:30:02.582Z,4.64
2023-01-17T11:35:02.366Z,4.37
2023-01-17T11:40:03.135Z,4.04
2023-01-17T11:45:03.029Z,4.19
2023-01-17T11:50:02.779Z,4.1
2023-01-17T11:55:03.239Z,4.15
2023-01-17T12:00:03.168Z,4.18
2023-01-17T12:05:03.165Z,4.09
2023-01-17T12:10:02.719Z,4.65
2023-01-17T12:15:02.491Z,4.72
2023-01-17T12:20:02.580Z,4.6
2023-01-17T12:25:02.291Z,4.77
2023-01-17T12:30:03.003Z,4.28
2023-01-17T12:35:02.705Z,3.93
2023-01-17T12:40:02.551Z,4.13
2023-01-17T12:45:02.324Z,4.01
2023-01-17T12:50:03.247Z,3.92
2023-01-17T12:55:04.207Z,3.89
2023-01-17T13:00:02.956Z,3.68
2023-01-17T13:05:02.492Z,3.76
2023-01-17T13:10:02.321Z,4.09
2023-01-17T13:15:03.162Z,4.05
2023-01-17T13:20:03.256Z,4.1
2023-01-17T13:25:02.985Z,4.2
2023-01-17T13:30:02.638Z,4.11
2023-01-17T13:35:02.258Z,4.24
2023-01-17T13:40:02.429Z,4.13
2023-01-17T13:45:03.231Z,3.98
2023-01-17T13:50:02.909Z,3.79
2023-01-17T13:55:03.690Z,3.67
2023-01-17T14:00:02.413Z,3.95
2023-01-17T14:05:02.347Z,5.01
2023-01-17T14:10:03.099Z,3.67
2023-01-17T14:15:02.862Z,3.55
2023-01-17T14:20:02.739Z,3.64
2023-01-17T14:25:02.528Z,3.45
2023-01-17T14:30:02.235Z,3.45
2023-01-17T14:35:02.914Z,3.44
2023-01-17T14:40:02.883Z,3.39
2023-01-17T14:45:02.906Z,3.4
2023-01-17T14:50:02.846Z,3.43
2023-01-17T14:55:03.485Z,3.3
2023-01-17T15:00:02.521Z,3.08
2023-01-17T15:05:03.088Z,2.8
2023-01-17T15:10:02.831Z,2.16
2023-01-17T15:15:02.995Z,1.75
2023-01-17T15:20:03.075Z,1.46
2023-01-17T15:25:02.951Z,1.51
2023-01-17T15:30:02.904Z,1.92
2023-01-17T15:35:02.529Z,2.31
2023-01-17T15:40:03.165Z,2.52
2023-01-17T15:45:02.537Z,2.49
2023-01-17T15:50:03.200Z,2.4
2023-01-17T15:55:03.638Z,2.27
2023-01-17T16:00:02.634Z,2.14
2023-01-17T16:05:02.396Z,2.09
2023-01-17T16:10:02.211Z,2.07
2023-01-17T16:15:12.194Z,2.01
2023-01-17T16:20:02.254Z,2
2023-01-17T16:25:03.119Z,2.02
2023-01-17T16:30:03.243Z,1.97
2023-01-17T16:35:02.892Z,1.93
2023-01-17T16:40:02.786Z,1.97
2023-01-17T16:45:02.883Z,1.91
2023-01-17T16:50:02.575Z,1.79
2023-01-17T16:55:03.090Z,1.83
2023-01-17T17:00:02.873Z,1.81
2023-01-17T17:05:03.008Z,1.75
2023-01-17T17:10:02.898Z,1.62
2023-01-17T17:15:02.559Z,1.7
2023-01-17T17:20:02.324Z,1.83
2023-01-17T17:25:02.752Z,1.87
2023-01-17T17:30:02.562Z,1.76
2023-01-17T17:35:03.096Z,1.52
2023-01-17T17:40:02.798Z,1.31
2023-01-17T17:45:02.748Z,1.29
2023-01-17T17:50:02.550Z,1.41
2023-01-17T17:55:03.067Z,1.6
2023-01-17T18:00:02.826Z,1.54
2023-01-17T18:05:02.454Z,1.68
2023-01-17T18:10:03.072Z,1.65
2023-01-17T18:15:02.879Z,1.6
2023-01-17T18:20:02.700Z,1.47
2023-01-17T18:25:02.426Z,1.41
2023-01-17T18:30:02.265Z,1.4
2023-01-17T18:35:03.125Z,1.43
2023-01-17T18:40:03.095Z,1.32
2023-01-17T18:45:02.848Z,1.13
2023-01-17T18:50:02.595Z,1.1
2023-01-17T18:55:03.389Z,0.81
2023-01-17T19:00:02.387Z,0.86
2023-01-17T19:05:08.089Z,0.89
2023-01-17T19:10:02.822Z,0.22
2023-01-17T19:15:02.894Z,-0.34
2023-01-17T19:20:02.505Z,-0.65
2023-01-17T19:25:02.224Z,-0.76
2023-01-17T19:30:03.093Z,-0.9
2023-01-17T19:35:02.998Z,-1.15
2023-01-17T19:40:02.976Z,-1.69
2023-01-17T19:45:02.718Z,-1.46
2023-01-17T19:50:02.462Z,-1.75
2023-01-17T19:55:03.263Z,-1.73
2023-01-17T20:00:02.876Z,-1.58
2023-01-17T20:05:02.275Z,-2.04
2023-01-17T20:10:03.027Z,-2.26
2023-01-17T20:15:03.056Z,-2.29
2023-01-17T20:20:02.222Z,-2.27
2023-01-17T20:25:03.019Z,-2.9
2023-01-17T20:30:14.643Z,-3.53
2023-01-17T20:35:02.309Z,-3.71
2023-01-17T20:40:03.044Z,-3.41
2023-01-17T20:45:02.805Z,-2.5
2023-01-17T20:50:02.525Z,-2.17
2023-01-17T20:55:02.948Z,-2.16
2023-01-17T21:00:03.017Z,-2.82
2023-01-17T21:05:02.740Z,-2.48
2023-01-17T21:10:02.539Z,-2.15
2023-01-17T21:15:02.339Z,-1.89
2023-01-17T21:20:02.263Z,-2.17
2023-01-17T21:25:03.074Z,-2.89
2023-01-17T21:30:02.987Z,-2.29
2023-01-17T21:35:02.998Z,-1.75
2023-01-17T21:40:05.022Z,-1.83
2023-01-17T21:45:07.413Z,-1.44
2023-01-17T21:50:03.087Z,-1.53
2023-01-17T21:55:03.305Z,-1.9
2023-01-17T22:00:02.760Z,-1.69
2023-01-17T22:05:02.423Z,-1.67
2023-01-17T22:10:02.222Z,-1.72
2023-01-17T22:15:02.993Z,-1.78
2023-01-17T22:20:03.137Z,-1.95
2023-01-17T22:25:02.885Z,-2.51
2023-01-17T22:30:02.788Z,-1.9
2023-01-17T22:35:03.957Z,-1.81
2023-01-17T22:40:02.465Z,-1.88
2023-01-17T22:45:02.658Z,-2.08
2023-01-17T22:50:02.838Z,-2.2
2023-01-17T22:55:02.999Z,-2.3
2023-01-17T23:00:02.721Z,-2.46
2023-01-17T23:05:02.287Z,-2.26
2023-01-17T23:10:03.146Z,-2.4
2023-01-17T23:15:02.461Z,-2.41
2023-01-17T23:20:02.362Z,-2.49
2023-01-17T23:25:02.304Z,-2.5
2023-01-17T23:30:03.252Z,-2.53
2023-01-17T23:35:02.912Z,-2.68
2023-01-17T23:40:02.674Z,-2.7
2023-01-17T23:45:02.562Z,-2.84
2023-01-17T23:50:02.189Z,-2.57
2023-01-17T23:55:03.910Z,-2.74
